logo dgac
Miércoles 20 de Marzo del 2019
Buscar por aerodromo o helipuerto
Ingrese nombre de aeródromo, localidad o designador OACI:

Aeródromo: Chacalluta (PUB) (SCAR)

Ubicación: Arica, XV Región, Chile (18º 20' 55'' S, 70º 20' 19'' W) Ver ubicación en el mapa

Pistas

Orientación Dimensión Pendiente Superficie Resistencia APCH THR RWY PAPI
02/20 2170 x 45 0,60 ASPH 40 F/A/X/T
Horas de operación H24
Elevación 51 m / 166 ft
Otra Información Adm : D.G.A.C
Uso : PUB
Ubicado a 18,5 Km al NW de la Cuidad de Arica
Central TEL 56-582281100
email : aro.arica@dgac.gob.cl

Otra información ver AIP-Chile Volumen I AD 2.2-1 SCAR

CCCM/FCCV Descargar
andera de Chile
Mapa de Chacalluta (PUB) (SCAR)

Último METAR

METAR SCAR 210000Z 19003KT CAVOK 21/15 Q1014

Último TAF

TAF SCAR 202253Z 2100/2124 18004KT CAVOK TN19/2106Z TX24/2117Z BECMG 2103/2105 07004KT BECMG 2115/2117 22012KT BECMG 2122/2124 18004KT

Últimas fotos cámaras

Imagen aerodromo Chacalluta (PUB) (SCAR) S-Oeste tomada el 20-03-2019 09:38:13 Imagen aerodromo Chacalluta (PUB) (SCAR) Norte tomada el 20-03-2019 09:38:32

Último NOTAM

A1234/19 NOTAMN Q)SCFZ/QLPAS/IV/BO/A/000/999/1821S07020W005 A)SCAR B)1903211400 C)1903211500 E)PAPI RWY 20 U/S DUE TO MAINT

LLegadas a Chacalluta (PUB) (SCAR)

En vuelo

Vuelo Procedencia Hora Despegue Local Hora Arribo Local

Salidas de Chacalluta (PUB) (SCAR)

En vuelo

Vuelo Hacia Hora Despegue Local Hora Arribo Local
SKU197 Arturo Merino Benitez (INTL) (PUB) (SCEL) 20:29 22:50